createdAt,value
2023-02-11T00:00:56.868Z,1.79
2023-02-11T00:04:02.511Z,1.74
2023-02-11T00:07:05.870Z,1.68
2023-02-11T00:10:09.755Z,1.88
2023-02-11T00:13:13.106Z,1.88
2023-02-11T00:16:20.726Z,1.77
2023-02-11T00:19:24.762Z,1.70
2023-02-11T00:22:27.886Z,1.82
2023-02-11T00:25:31.421Z,1.80
2023-02-11T00:28:34.173Z,1.72
2023-02-11T00:31:37.990Z,1.85
2023-02-11T00:34:41.366Z,1.70
2023-02-11T00:37:45.109Z,1.74
2023-02-11T00:40:48.127Z,1.85
2023-02-11T00:43:51.401Z,1.63
2023-02-11T00:46:54.931Z,1.76
2023-02-11T00:49:57.915Z,1.66
2023-02-11T00:53:02.856Z,1.65
2023-02-11T00:56:06.298Z,1.77
2023-02-11T00:59:40.760Z,1.86
2023-02-11T01:02:45.013Z,1.77
2023-02-11T01:06:10.383Z,1.86
2023-02-11T01:09:14.466Z,1.80
2023-02-11T01:12:17.026Z,1.82
2023-02-11T01:15:21.678Z,1.81
2023-02-11T01:18:25.980Z,1.80
2023-02-11T01:21:28.843Z,1.72
2023-02-11T01:24:42.220Z,1.77
2023-02-11T01:27:57.264Z,1.84
2023-02-11T01:31:03.796Z,1.81
2023-02-11T01:34:08.846Z,1.80
2023-02-11T01:37:15.155Z,1.80
2023-02-11T01:40:19.326Z,1.79
2023-02-11T01:43:23.350Z,1.76
2023-02-11T01:46:37.719Z,1.75
2023-02-11T01:49:44.144Z,1.77
2023-02-11T01:52:52.883Z,1.79
2023-02-11T01:56:15.778Z,1.71
2023-02-11T01:59:25.384Z,1.72
2023-02-11T02:02:50.879Z,1.67
2023-02-11T02:06:00.426Z,1.74
2023-02-11T02:09:08.972Z,1.65
2023-02-11T02:12:11.731Z,1.67
2023-02-11T02:15:20.341Z,1.70
2023-02-11T02:18:36.255Z,1.68
2023-02-11T02:21:44.517Z,1.71
2023-02-11T02:30:40.466Z,1.67
2023-02-11T02:33:56.060Z,1.57
2023-02-11T02:37:07.660Z,1.65
2023-02-11T02:40:17.572Z,1.68
2023-02-11T02:43:20.758Z,1.74
2023-02-11T02:46:32.083Z,1.74
2023-02-11T02:49:34.588Z,1.64
2023-02-11T02:52:52.358Z,1.73
2023-02-11T02:56:18.995Z,1.72
2023-02-11T02:59:30.806Z,1.71
2023-02-11T03:02:47.360Z,1.76
2023-02-11T03:05:56.244Z,1.67
2023-02-11T03:09:10.341Z,1.71
2023-02-11T03:12:15.050Z,1.80
2023-02-11T03:15:19.896Z,1.80
2023-02-11T03:18:25.783Z,1.75
2023-02-11T03:21:30.261Z,1.78
2023-02-11T03:24:35.987Z,1.80
2023-02-11T03:27:39.011Z,1.76
2023-02-11T03:31:17.930Z,1.76
2023-02-11T03:34:30.466Z,1.76
2023-02-11T03:37:37.470Z,1.67
2023-02-11T03:40:48.366Z,1.75
2023-02-11T03:44:00.553Z,1.72
2023-02-11T03:47:06.244Z,1.79
2023-02-11T03:50:11.343Z,1.80
2023-02-11T03:53:28.616Z,1.77
2023-02-11T03:56:35.882Z,1.69
2023-02-11T03:59:54.771Z,1.75
2023-02-11T04:02:57.846Z,1.72
2023-02-11T04:06:00.385Z,1.72
2023-02-11T04:09:03.261Z,1.73
2023-02-11T04:12:05.929Z,1.69
2023-02-11T04:15:09.327Z,1.74
2023-02-11T04:18:12.128Z,1.73
2023-02-11T04:21:15.280Z,1.75
2023-02-11T04:24:17.673Z,1.74
2023-02-11T04:27:20.756Z,1.73
2023-02-11T04:30:24.053Z,1.73
2023-02-11T04:33:31.090Z,1.72
2023-02-11T04:36:35.824Z,1.57
2023-02-11T04:39:38.787Z,1.56
2023-02-11T04:42:42.206Z,1.59
2023-02-11T04:45:45.327Z,1.60
2023-02-11T04:48:48.510Z,1.50
2023-02-11T04:51:51.292Z,1.62
2023-02-11T04:54:57.403Z,1.70
2023-02-11T04:58:15.443Z,1.70
2023-02-11T05:01:18.510Z,1.64
2023-02-11T05:04:38.111Z,1.62
2023-02-11T05:07:44.313Z,1.71
2023-02-11T05:10:48.370Z,1.73
2023-02-11T05:13:54.077Z,1.73
2023-02-11T05:16:56.550Z,1.78
2023-02-11T05:19:59.451Z,1.65
2023-02-11T05:23:01.930Z,1.79
2023-02-11T05:26:04.919Z,1.85
2023-02-11T05:29:08.023Z,1.81
2023-02-11T05:32:11.046Z,1.61
2023-02-11T05:35:14.664Z,1.81
2023-02-11T05:38:17.611Z,1.87
2023-02-11T05:41:20.579Z,1.70
2023-02-11T05:44:23.650Z,1.70
2023-02-11T05:47:26.746Z,1.85
2023-02-11T05:50:30.027Z,1.68
2023-02-11T05:53:33.252Z,1.79
2023-02-11T05:56:36.332Z,1.75
2023-02-11T05:59:39.625Z,1.73
2023-02-11T06:02:43.247Z,1.71
2023-02-11T06:05:47.692Z,1.75
2023-02-11T06:08:50.833Z,1.71
2023-02-11T06:11:56.965Z,1.78
2023-02-11T06:15:05.777Z,1.74
2023-02-11T06:18:08.593Z,1.78
2023-02-11T06:21:12.410Z,1.77
2023-02-11T06:24:17.439Z,1.95
2023-02-11T06:27:23.319Z,1.80
2023-02-11T06:30:26.442Z,1.75
2023-02-11T06:33:29.842Z,1.79
2023-02-11T06:36:32.903Z,1.79
2023-02-11T06:39:36.129Z,1.59
2023-02-11T06:42:39.798Z,1.87
2023-02-11T06:45:43.452Z,1.79
2023-02-11T06:48:46.254Z,1.80
2023-02-11T06:51:49.482Z,1.82
2023-02-11T06:54:52.389Z,1.79
2023-02-11T06:57:55.694Z,1.72
2023-02-11T07:00:58.778Z,1.70
2023-02-11T07:04:01.788Z,1.68
2023-02-11T07:07:04.942Z,1.64
2023-02-11T07:10:08.674Z,1.64
2023-02-11T07:13:11.236Z,1.68
2023-02-11T07:16:16.299Z,1.70
2023-02-11T07:19:19.998Z,1.56
2023-02-11T07:22:23.886Z,1.50
2023-02-11T07:25:26.987Z,1.48
2023-02-11T07:28:30.907Z,1.51
2023-02-11T07:31:37.189Z,1.57
2023-02-11T08:02:16.083Z,1.68
2023-02-11T08:05:19.894Z,1.52
2023-02-11T08:08:23.647Z,1.65
2023-02-11T08:11:28.992Z,1.64
2023-02-11T08:14:33.013Z,1.77
2023-02-11T08:17:37.222Z,1.85
2023-02-11T08:20:39.697Z,1.62
2023-02-11T08:23:44.369Z,1.72
2023-02-11T08:26:46.882Z,1.74
2023-02-11T08:29:49.799Z,1.67
2023-02-11T08:32:52.338Z,1.58
2023-02-11T08:35:55.257Z,1.65
2023-02-11T08:39:19.350Z,1.60
2023-02-11T08:42:23.321Z,1.74
2023-02-11T08:45:25.824Z,1.77
2023-02-11T08:48:28.966Z,1.56
2023-02-11T08:51:31.864Z,1.59
2023-02-11T08:54:34.762Z,1.87
2023-02-11T08:57:37.893Z,1.86
2023-02-11T09:00:41.012Z,1.88
2023-02-11T09:03:43.563Z,1.77
2023-02-11T09:06:46.944Z,1.86
2023-02-11T09:09:49.488Z,1.85
2023-02-11T09:12:52.489Z,1.63
2023-02-11T09:15:57.941Z,1.91
2023-02-11T09:19:04.545Z,1.93
2023-02-11T09:22:07.372Z,1.76
2023-02-11T09:25:10.771Z,1.75
2023-02-11T09:28:13.276Z,1.91
2023-02-11T09:31:18.904Z,1.91
2023-02-11T09:34:22.682Z,1.83
2023-02-11T09:37:25.470Z,1.86
2023-02-11T09:43:48.943Z,1.81
2023-02-11T09:47:12.914Z,1.77
2023-02-11T09:50:41.979Z,1.71
2023-02-11T09:53:44.828Z,1.58
2023-02-11T09:56:47.847Z,1.70
2023-02-11T09:59:50.768Z,1.74
2023-02-11T10:03:12.082Z,1.68
2023-02-11T10:06:42.060Z,1.69
2023-02-11T10:10:22.005Z,1.73
2023-02-11T10:13:30.487Z,1.75
2023-02-11T10:16:53.515Z,1.77
2023-02-11T10:20:08.565Z,1.81
2023-02-11T10:23:21.071Z,1.85
2023-02-11T10:26:24.109Z,1.68
2023-02-11T10:29:38.748Z,1.68
2023-02-11T10:32:56.696Z,1.81
2023-02-11T10:35:59.990Z,1.77
2023-02-11T10:39:18.106Z,1.73
2023-02-11T10:42:21.183Z,1.88
2023-02-11T10:45:26.749Z,1.81
2023-02-11T10:48:49.685Z,1.75
2023-02-11T10:51:53.340Z,1.59
2023-02-11T10:55:22.387Z,1.86
2023-02-11T10:58:37.441Z,1.72
2023-02-11T11:02:01.058Z,1.88
2023-02-11T11:05:07.330Z,1.77
2023-02-11T11:08:10.333Z,1.95
2023-02-11T11:11:24.379Z,2.00
2023-02-11T11:14:29.873Z,2.00
2023-02-11T11:17:32.447Z,1.86
2023-02-11T11:20:36.680Z,1.83
2023-02-11T11:23:40.410Z,1.99
2023-02-11T11:26:45.984Z,2.05
2023-02-11T11:29:51.587Z,2.09
2023-02-11T11:32:54.594Z,2.12
2023-02-11T11:36:08.648Z,2.09
2023-02-11T11:39:26.260Z,1.88
2023-02-11T11:42:34.590Z,2.09
2023-02-11T11:45:39.360Z,2.09
2023-02-11T11:48:48.384Z,2.14
2023-02-11T11:52:14.845Z,2.02
2023-02-11T11:55:17.545Z,2.17
2023-02-11T11:58:23.088Z,2.16
2023-02-11T12:04:57.670Z,2.17
2023-02-11T12:08:29.897Z,2.41
2023-02-11T12:11:54.618Z,2.13
2023-02-11T12:15:29.100Z,2.35
2023-02-11T12:18:53.860Z,2.22
2023-02-11T12:22:11.321Z,2.36
2023-02-11T12:25:29.435Z,2.46
2023-02-11T12:28:43.619Z,2.43
2023-02-11T12:31:53.316Z,2.43
2023-02-11T12:35:25.814Z,2.41
2023-02-11T12:38:52.493Z,2.64
2023-02-11T12:42:32.847Z,2.65
2023-02-11T12:45:36.124Z,2.70
2023-02-11T12:49:04.342Z,2.74
2023-02-11T12:52:17.984Z,2.80
2023-02-11T12:55:37.444Z,2.85
2023-02-11T12:58:45.984Z,2.80
2023-02-11T13:01:50.994Z,2.87
2023-02-11T13:05:26.439Z,2.93
2023-02-11T13:08:31.681Z,2.93
2023-02-11T13:11:42.876Z,2.98
2023-02-11T13:14:50.948Z,2.88
2023-02-11T13:18:09.269Z,2.98
2023-02-11T20:37:13.533Z,4.58
2023-02-11T20:45:57.004Z,4.47
2023-02-11T20:53:55.357Z,4.61
2023-02-11T20:57:01.544Z,4.56
2023-02-11T21:00:06.597Z,4.47
2023-02-11T21:03:11.125Z,4.51
2023-02-11T21:06:21.774Z,4.41
2023-02-11T21:09:30.528Z,4.22
2023-02-11T21:12:45.630Z,4.09
2023-02-11T21:15:58.865Z,4.05
2023-02-11T21:19:04.656Z,3.82
2023-02-11T21:22:10.347Z,3.89
2023-02-11T21:25:16.577Z,3.74
2023-02-11T21:28:26.780Z,3.71
2023-02-11T21:31:36.016Z,3.76
2023-02-11T21:34:43.095Z,3.70
2023-02-11T21:37:59.199Z,3.69
2023-02-11T21:41:05.816Z,3.77
2023-02-11T21:44:12.342Z,3.53
2023-02-11T21:47:18.759Z,3.71
2023-02-11T21:50:31.841Z,3.67
2023-02-11T21:53:37.547Z,3.54
2023-02-11T21:56:42.005Z,3.44
2023-02-11T21:59:47.032Z,3.38
2023-02-11T22:02:53.899Z,3.35
2023-02-11T22:05:57.203Z,3.29
2023-02-11T22:09:06.679Z,3.36
2023-02-11T22:12:09.716Z,3.25
2023-02-11T22:15:13.738Z,3.38
2023-02-11T22:18:27.255Z,3.31
2023-02-11T22:21:31.286Z,3.34
